Adell, Wisconsin
Current Conditions -  °F | °C
As of 7:53 PM on Saturday 20 Dec 2014 (Local Time) from KSBM Reporting Station
Haze Haze  
Wind Chill: -2°   Ceiling: 3500
Heat Index: -2°   Visibility: 6mi
Dew Point: -3°   Wind: 3mph
Humidity: 89%   Direction: 220°SW
Pressure: 30.23"   Gusts: NA
Location:  43.62°N, 87.95°W
Report Text: KSBM 210153Z AUTO 22003KT 6SM BR BKN035 OVC080 M02/M03 A3023 RMK AO2 SLP249 T10171033
Loading
Personal Weather Stations






























Interactive Weather Map New forecast layout! Learn more

10-Day Weather Forecast

Advertisements
Track Severe Weather on mobile